Time;durP1;ratioP1;P1;durP2;ratioP2;P2;SDS_P1;SDS_P2;PMS_P1;PMS_P2;Temp;Humidity;BMP_temperature;BMP_pressure;BME280_temperature;BME280_humidity;BME280_pressure;Samples;Min_cycle;Max_cycle;Signal;HPM_P1;HPM_P2
2022/04/01 00:00:40;;;;;;;5.03;2.77;;;;;;;0.95;97.28;96109.22;1743076;81;21419;-57
2022/04/01 00:03:07;;;;;;;13.70;5.72;;;;;;;0.91;97.70;96106.00;1742823;82;20990;-58
2022/04/01 00:05:34;;;;;;;17.10;6.72;;;;;;;0.88;97.68;96098.53;1743260;81;21009;-57
2022/04/01 00:08:02;;;;;;;12.47;5.12;;;;;;;0.84;97.54;96103.05;1750717;80;20985;-58
2022/04/01 00:10:29;;;;;;;6.10;2.52;;;;;;;0.84;97.73;96096.38;1743367;82;21030;-57
2022/04/01 00:12:56;;;;;;;8.83;3.10;;;;;;;0.84;97.44;96103.05;1751059;80;21469;-58
2022/04/01 00:15:22;;;;;;;7.92;3.20;;;;;;;0.86;97.44;96107.34;1743725;80;20993;-57
2022/04/01 00:17:49;;;;;;;13.48;6.67;;;;;;;0.83;97.42;96097.45;1744429;80;21408;-57
2022/04/01 00:20:18;;;;;;;13.75;7.58;;;;;;;0.87;97.51;96091.07;1752761;80;20997;-57
2022/04/01 00:22:46;;;;;;;9.23;4.92;;;;;;;0.95;97.19;96092.42;1768270;80;21014;-57
2022/04/01 00:25:13;;;;;;;2.20;1.67;;;;;;;0.97;97.26;96093.75;1743066;82;21631;-58
2022/04/01 00:27:40;;;;;;;3.33;1.80;;;;;;;0.92;96.88;96092.93;1743104;81;21538;-58
2022/04/01 00:30:08;;;;;;;2.90;2.15;;;;;;;0.93;96.88;96089.98;1767772;80;21413;-57
2022/04/01 00:32:35;;;;;;;2.50;1.87;;;;;;;0.97;96.83;96089.74;1770528;80;21639;-58
2022/04/01 00:35:03;;;;;;;2.85;1.87;;;;;;;1.01;96.85;96095.34;1743226;82;21073;-58
2022/04/01 00:37:30;;;;;;;4.60;2.30;;;;;;;0.96;96.64;96095.34;1743321;82;21443;-58
2022/04/01 00:39:57;;;;;;;2.50;2.10;;;;;;;0.88;96.51;96092.67;1743313;82;20987;-58
2022/04/01 00:42:25;;;;;;;3.75;2.10;;;;;;;0.91;96.60;96096.13;1743392;81;21019;-57
2022/04/01 00:44:52;;;;;;;3.20;2.00;;;;;;;0.89;96.76;96096.94;1743298;82;20997;-58
2022/04/01 00:47:19;;;;;;;3.87;2.08;;;;;;;0.92;96.79;96095.59;1743160;81;21050;-57
2022/04/01 00:49:46;;;;;;;6.17;2.52;;;;;;;0.95;96.60;96091.09;1765285;80;21437;-58
2022/04/01 00:52:19;;;;;;;2.55;1.70;;;;;;;0.97;96.36;96099.61;1773968;80;21081;-58
2022/04/01 00:54:46;;;;;;;2.25;1.30;;;;;;;0.92;96.72;96102.27;1765865;80;21669;-58
2022/04/01 00:57:13;;;;;;;3.83;1.60;;;;;;;0.83;96.68;96096.11;1773947;80;21033;-59
2022/04/01 00:59:42;;;;;;;2.37;1.50;;;;;;;0.80;97.02;96094.52;1743881;80;21009;-58
2022/04/01 01:02:08;;;;;;;1.83;1.33;;;;;;;0.82;97.19;96099.05;1743546;82;21057;-58
2022/04/01 01:04:36;;;;;;;2.27;1.62;;;;;;;0.79;97.27;96086.26;1743108;81;21058;-58
2022/04/01 01:07:04;;;;;;;2.83;2.02;;;;;;;0.84;97.16;96086.25;1743047;82;21022;-58
2022/04/01 01:09:31;;;;;;;3.15;1.77;;;;;;;0.89;96.95;96082.80;1742899;82;21065;-58
2022/04/01 01:11:58;;;;;;;3.87;2.50;;;;;;;0.90;97.03;96083.06;1742952;82;21009;-58
2022/04/01 01:14:28;;;;;;;2.95;2.15;;;;;;;0.88;97.05;96081.20;1742889;81;21061;-58
2022/04/01 01:16:56;;;;;;;2.98;2.10;;;;;;;0.86;97.17;96076.14;1743089;82;21475;-58
2022/04/01 01:19:23;;;;;;;2.75;1.60;;;;;;;0.88;97.03;96074.00;1751104;80;21042;-58
2022/04/01 01:21:52;;;;;;;2.72;2.00;;;;;;;0.85;97.56;96071.84;1772199;80;21013;-58
2022/04/01 01:24:32;;;;;;;3.08;2.00;;;;;;;0.86;97.42;96064.67;1749186;80;21022;-58
2022/04/01 01:27:00;;;;;;;1.72;1.22;;;;;;;0.90;96.93;96063.86;1742949;81;21451;-57
2022/04/01 01:29:30;;;;;;;1.35;1.20;;;;;;;0.89;97.05;96063.59;1742956;82;21011;-57
2022/04/01 01:31:59;;;;;;;2.60;1.37;;;;;;;0.92;96.89;96060.39;1742995;82;21040;-58
2022/04/01 01:34:27;;;;;;;;;;;;;;;0.93;96.97;96058.52;1745393;82;20994;-57
2022/04/01 01:36:54;;;;;;;1.67;1.57;;;;;;;0.95;96.73;96055.88;1743055;82;20460;-57
2022/04/01 01:39:21;;;;;;;1.82;1.30;;;;;;;0.95;96.66;96058.55;1742897;81;21077;-57
2022/04/01 01:41:49;;;;;;;2.83;1.70;;;;;;;0.98;96.48;96064.67;1743042;82;21008;-58
2022/04/01 01:44:21;;;;;;;1.72;1.40;;;;;;;1.02;96.51;96053.72;1743123;82;21441;-58
2022/04/01 01:46:48;;;;;;;2.95;1.67;;;;;;;1.01;96.26;96054.80;1742932;82;21065;-57
2022/04/01 01:49:15;;;;;;;1.57;1.32;;;;;;;0.99;96.46;96044.93;1742870;82;22053;-57
2022/04/01 01:54:43;;;;;;;2.72;1.67;;;;;;;0.94;96.92;96046.78;1742859;81;21577;-57
2022/04/01 01:57:15;;;;;;;2.42;1.67;;;;;;;0.94;96.78;96048.95;1742930;82;21077;-57
2022/04/01 01:59:43;;;;;;;3.17;2.00;;;;;;;0.93;97.05;96043.86;1743129;82;21011;-58
2022/04/01 02:02:10;;;;;;;5.00;3.83;;;;;;;0.94;97.06;96051.61;1743049;82;21060;-57
2022/04/01 02:04:40;;;;;;;4.08;2.98;;;;;;;0.93;97.08;96049.98;1742893;81;20959;-57
2022/04/01 02:07:08;;;;;;;4.22;3.25;;;;;;;0.96;96.73;96046.80;1743069;82;21442;-57
2022/04/01 02:09:35;;;;;;;6.75;3.55;;;;;;;0.89;97.17;96036.94;1752007;80;21021;-58
2022/04/01 02:12:03;;;;;;;2.27;1.87;;;;;;;0.89;97.17;96036.94;1743038;82;21017;-58
2022/04/01 02:14:34;;;;;;;2.35;1.67;;;;;;;0.98;96.75;96033.20;1742921;82;21073;-58
2022/04/01 02:16:58;;;;;;;3.15;2.50;;;;;;;0.97;97.33;96034.27;1742606;82;26567;-58
2022/04/01 02:19:25;;;;;;;3.58;2.83;;;;;;;0.95;97.28;96028.41;1742848;82;21017;-57
2022/04/01 02:21:53;;;;;;;3.45;2.55;;;;;;;0.99;96.84;96032.93;1772621;80;21397;-57
2022/04/01 02:24:21;;;;;;;3.10;2.40;;;;;;;1.00;96.57;96021.73;1748323;80;21001;-58
2022/04/01 02:26:48;;;;;;;3.22;2.27;;;;;;;0.99;96.89;96021.46;1743140;81;21025;-57
2022/04/01 02:29:19;;;;;;;3.52;1.90;;;;;;;0.93;97.32;96026.52;1746010;80;21005;-58
2022/04/01 02:31:48;;;;;;;2.98;1.87;;;;;;;0.93;97.11;96019.85;1743000;82;21004;-58
2022/04/01 02:34:15;;;;;;;2.08;1.67;;;;;;;0.91;97.21;96021.45;1742939;82;21627;-58
2022/04/01 02:36:43;;;;;;;5.35;2.52;;;;;;;0.93;97.05;96025.98;1742935;82;21037;-58
2022/04/01 02:39:10;;;;;;;2.65;1.87;;;;;;;0.95;96.94;96027.88;1766397;80;21009;-57
2022/04/01 02:41:36;;;;;;;3.42;2.08;;;;;;;0.99;96.72;96025.46;1773867;80;21013;-57
2022/04/01 02:44:12;;;;;;;3.37;2.80;;;;;;;1.03;96.53;96027.88;1759505;80;21026;-58
2022/04/01 02:46:43;;;;;;;2.87;2.42;;;;;;;1.03;96.56;96026.02;1743085;82;21006;-58
2022/04/01 02:49:15;;;;;;;3.55;3.20;;;;;;;1.07;96.23;96024.93;1758225;80;21005;-57
2022/04/01 02:51:44;;;;;;;2.58;2.22;;;;;;;1.10;96.21;96023.05;1773726;80;21041;-57
2022/04/01 02:54:12;;;;;;;5.12;2.40;;;;;;;1.11;96.22;96017.47;1764267;80;21024;-57
2022/04/01 02:56:39;;;;;;;2.12;1.22;;;;;;;1.08;96.17;96017.98;1773869;80;20989;-57
2022/04/01 02:59:07;;;;;;;2.27;1.80;;;;;;;1.09;96.02;96018.25;1751916;80;21294;-58
2022/04/01 03:01:39;;;;;;;3.22;2.67;;;;;;;1.09;96.02;96016.12;1743130;81;21033;-57
2022/04/01 03:04:10;;;;;;;1.87;1.60;;;;;;;1.00;96.21;96023.86;1744091;80;20997;-58
2022/04/01 03:06:43;;;;;;;3.67;3.08;;;;;;;1.03;96.02;96022.55;1743183;81;21006;-57
2022/04/01 03:09:11;;;;;;;3.55;3.22;;;;;;;1.01;96.22;96013.98;1743941;80;21053;-57
2022/04/01 03:11:38;;;;;;;2.30;2.00;;;;;;;0.96;96.52;96008.67;1743022;81;21260;-57
2022/04/01 03:14:06;;;;;;;2.95;1.52;;;;;;;0.99;96.07;96007.59;1756201;80;20962;-58
2022/04/01 03:16:33;;;;;;;1.80;1.62;;;;;;;0.96;96.46;96009.47;1773893;80;21435;-58
2022/04/01 03:19:00;;;;;;;2.52;1.85;;;;;;;0.98;96.24;96009.20;1759976;80;21062;-58
2022/04/01 03:21:29;;;;;;;2.15;1.77;;;;;;;0.98;96.27;96009.99;1767700;80;21021;-58
2022/04/01 03:23:56;;;;;;;2.30;1.85;;;;;;;0.97;96.17;96012.40;1753080;80;21091;-58
2022/04/01 03:26:23;;;;;;;2.60;2.15;;;;;;;0.88;96.87;96004.67;1743168;82;21001;-57
2022/04/01 03:28:50;;;;;;;2.45;1.57;;;;;;;0.91;96.46;96001.98;1743057;82;21066;-57
2022/04/01 03:31:17;;;;;;;3.10;1.80;;;;;;;0.90;96.63;96002.53;1743194;82;20936;-57
2022/04/01 03:33:44;;;;;;;2.15;1.80;;;;;;;0.95;96.37;96003.88;1742998;80;21018;-57
2022/04/01 03:36:11;;;;;;;4.28;2.22;;;;;;;0.99;96.22;96012.92;1743000;82;20979;-57
2022/04/01 03:38:38;;;;;;;3.50;2.30;;;;;;;1.04;96.21;96014.27;1697337;83;22129;-57
2022/04/01 03:41:05;;;;;;;2.50;1.95;;;;;;;1.06;95.98;96013.46;1763715;81;20994;-57
2022/04/01 03:43:34;;;;;;;2.65;1.57;;;;;;;1.04;95.98;96018.80;1753122;81;21073;-57
2022/04/01 03:46:08;;;;;;;2.87;1.82;;;;;;;0.99;96.12;96017.46;1743397;82;21443;-57
2022/04/01 03:48:44;;;;;;;2.55;1.80;;;;;;;0.90;96.49;96021.73;1742885;81;21022;-57
2022/04/01 03:51:18;;;;;;;2.65;1.90;;;;;;;0.96;96.09;96022.01;1743197;82;21057;-57
2022/04/01 03:54:00;;;;;;;1.82;1.50;;;;;;;0.94;96.32;96012.95;1742815;81;21017;-57
2022/04/01 03:56:34;;;;;;;3.25;2.00;;;;;;;0.90;96.39;96011.86;1743161;82;21049;-57
2022/04/01 03:59:09;;;;;;;6.00;2.65;;;;;;;0.85;96.43;96010.52;1741937;81;21499;-57
2022/04/01 04:01:37;;;;;;;4.37;2.25;;;;;;;0.88;96.30;96011.87;1742796;82;21436;-57
2022/04/01 04:04:05;;;;;;;5.53;2.45;;;;;;;0.92;96.26;96016.92;1750627;80;21011;-58
2022/04/01 04:06:34;;;;;;;2.83;1.82;;;;;;;0.93;96.24;96018.52;1743107;82;21455;-57
2022/04/01 04:09:02;;;;;;;3.00;1.95;;;;;;;0.92;96.26;96014.25;1742897;82;21069;-58
2022/04/01 04:11:31;;;;;;;3.45;2.72;;;;;;;0.89;96.28;96016.13;1743048;82;21529;-58
2022/04/01 04:14:00;;;;;;;2.80;1.90;;;;;;;0.94;96.00;96010.78;1742668;82;22171;-58
2022/04/01 04:16:31;;;;;;;;;;;;;;;0.91;96.41;96012.66;1745592;82;20986;-58
2022/04/01 04:19:10;;;;;;;5.28;3.10;;;;;;;0.89;96.44;96006.80;1755677;80;20137;-58
2022/04/01 04:21:41;;;;;;;;;;;;;;;0.91;96.20;96009.99;1749512;80;22101;-57
2022/04/01 04:24:17;;;;;;;1.82;1.50;;;;;;;0.92;96.20;96008.39;1751051;80;20279;-57
2022/04/01 04:26:50;;;;;;;2.08;1.35;;;;;;;0.92;96.36;96003.59;1743224;81;21503;-57
2022/04/01 04:29:18;;;;;;;2.22;1.55;;;;;;;0.92;96.16;96000.92;1750896;80;20971;-58
2022/04/01 04:32:02;;;;;;;1.72;1.15;;;;;;;0.89;96.33;96009.47;1743185;82;21018;-58
2022/04/01 04:34:37;;;;;;;3.35;1.90;;;;;;;0.89;96.24;96016.93;1742786;81;22100;-57
2022/04/01 04:37:11;;;;;;;2.55;1.80;;;;;;;0.88;96.15;96018.53;1762098;80;20961;-58
2022/04/01 04:39:35;;;;;;;3.15;2.05;;;;;;;0.92;96.10;96027.05;1743691;80;21002;-57
2022/04/01 04:42:04;;;;;;;5.08;2.70;;;;;;;0.94;96.17;96028.95;1743021;82;21001;-58
2022/04/01 04:44:31;;;;;;;;;;;;;;;0.94;96.16;96032.95;1745612;81;21337;-57
2022/04/01 04:46:59;;;;;;;5.00;3.45;;;;;;;0.98;96.28;96035.33;1743354;82;20150;-58
2022/04/01 04:49:29;;;;;;;4.55;3.85;;;;;;;0.94;96.56;96032.95;1761875;80;21017;-57
2022/04/01 04:51:57;;;;;;;3.60;2.95;;;;;;;0.99;96.08;96030.80;1773772;80;21722;-57
2022/04/01 04:54:25;;;;;;;7.05;3.33;;;;;;;1.01;96.11;96034.79;1748316;80;21396;-58
2022/04/01 04:56:55;;;;;;;6.20;4.10;;;;;;;1.00;96.41;96039.86;1754790;80;21013;-58
2022/04/01 04:59:22;;;;;;;5.08;3.15;;;;;;;1.01;96.46;96042.79;1756957;80;21391;-58
2022/04/01 05:02:03;;;;;;;6.72;3.30;;;;;;;1.00;96.19;96047.86;1743022;81;21461;-58
2022/04/01 05:05:00;;;;;;;4.10;3.58;;;;;;;1.02;96.07;96041.72;1696036;84;21554;-58
2022/04/01 05:07:50;;;;;;;4.40;3.05;;;;;;;1.04;96.12;96044.14;1758008;80;20994;-58
2022/04/01 05:10:23;;;;;;;4.37;3.35;;;;;;;1.00;96.67;96049.73;1743359;82;21014;-58
2022/04/01 05:13:20;;;;;;;3.35;2.58;;;;;;;1.03;96.46;96054.55;1742824;82;21025;-57
2022/04/01 05:15:51;;;;;;;5.10;3.27;;;;;;;1.06;96.20;96056.67;1705391;82;21995;-58
2022/04/01 05:18:31;;;;;;;3.65;2.92;;;;;;;1.08;96.23;96051.33;1753486;80;21053;-58
2022/04/01 05:21:01;;;;;;;6.22;4.45;;;;;;;1.12;95.83;96055.08;1743107;82;21470;-57
2022/04/01 05:23:55;;;;;;;9.80;5.10;;;;;;;1.10;96.14;96051.86;1746546;80;21010;-58
2022/04/01 05:26:38;;;;;;;28.87;9.40;;;;;;;1.09;96.22;96059.59;1743379;82;21072;-57
2022/04/01 05:29:02;;;;;;;19.42;8.80;;;;;;;1.13;96.01;96054.55;1741816;81;20999;-58
2022/04/01 05:31:35;;;;;;;16.57;7.87;;;;;;;1.16;96.14;96062.00;1734762;80;21151;-57
2022/04/01 05:34:45;;;;;;;12.53;5.55;;;;;;;1.16;96.32;96059.34;1750399;80;21902;-58
2022/04/01 05:37:13;;;;;;;10.53;5.17;;;;;;;1.18;96.20;96058.53;1760086;80;20959;-58
2022/04/01 05:39:46;;;;;;;6.28;4.70;;;;;;;1.27;95.92;96059.59;1745235;80;21029;-58
2022/04/01 05:42:13;;;;;;;4.55;3.35;;;;;;;1.29;95.98;96065.48;1746787;80;21018;-57
2022/04/01 05:44:42;;;;;;;5.45;3.52;;;;;;;1.32;96.07;96063.61;1755197;80;21400;-58
2022/04/01 05:47:10;;;;;;;6.60;3.72;;;;;;;1.29;96.13;96057.48;1769913;78;21001;-58
2022/04/01 05:49:40;;;;;;;6.37;3.70;;;;;;;1.39;95.78;96061.47;1748284;80;21045;-58
2022/04/01 05:52:09;;;;;;;5.62;3.45;;;;;;;1.42;95.83;96062.80;1742537;82;21258;-58
2022/04/01 05:54:37;;;;;;;;;;;;;;;1.51;95.57;96063.84;1745550;82;21450;-58
2022/04/01 05:57:04;;;;;;;5.58;4.05;;;;;;;1.49;95.61;96065.99;1756990;80;21206;-58
2022/04/01 05:59:33;;;;;;;5.72;3.85;;;;;;;1.62;95.29;96061.95;1757414;80;21112;-58
2022/04/01 06:02:30;;;;;;;6.47;4.12;;;;;;;1.72;95.23;96065.96;1754089;80;28096;-58
2022/04/01 06:05:12;;;;;;;10.45;6.75;;;;;;;1.73;94.64;96062.75;1758822;80;21018;-58
2022/04/01 06:08:07;;;;;;;9.35;5.37;;;;;;;1.85;94.72;96057.91;1752356;80;21123;-58
2022/04/01 06:10:46;;;;;;;6.85;4.85;;;;;;;1.91;94.41;96066.17;1746214;80;21137;-58
2022/04/01 06:13:35;;;;;;;6.40;4.62;;;;;;;1.93;94.20;96066.16;1762512;80;21398;-58
2022/04/01 06:16:43;;;;;;;4.92;3.83;;;;;;;1.92;93.86;96069.91;1704864;82;21096;-58
2022/04/01 06:19:25;;;;;;;6.10;3.67;;;;;;;1.93;93.77;96066.70;1750792;80;20962;-58
2022/04/01 06:22:04;;;;;;;4.75;3.50;;;;;;;1.83;93.52;96070.73;1755265;80;21056;-58
2022/04/01 06:25:10;;;;;;;5.53;2.55;;;;;;;1.86;93.68;96067.52;1755693;80;20954;-57
2022/04/01 06:27:42;;;;;;;5.08;3.42;;;;;;;1.77;93.41;96068.61;1762136;79;21202;-58
2022/04/01 06:30:17;;;;;;;5.37;2.75;;;;;;;1.87;93.53;96074.45;1756157;80;21060;-58
2022/04/01 06:33:25;;;;;;;6.65;4.17;;;;;;;1.77;93.08;96070.48;1761289;80;21087;-58
2022/04/01 06:35:59;;;;;;;9.17;5.63;;;;;;;1.83;92.84;96070.73;1624003;85;21582;-58
2022/04/01 06:38:48;;;;;;;17.77;11.57;;;;;;;1.80;92.49;96067.28;1665360;83;21032;-58
2022/04/01 06:41:21;;;;;;;9.90;6.33;;;;;;;1.79;92.98;96066.45;1735000;80;21018;-58
2022/04/01 06:43:50;;;;;;;8.03;5.45;;;;;;;1.83;92.63;96067.53;1751528;80;21395;-57
2022/04/01 06:46:17;;;;;;;7.85;4.00;;;;;;;1.89;91.84;96069.13;1762889;80;21128;-57
2022/04/01 06:48:44;;;;;;;6.33;4.08;;;;;;;1.93;91.74;96066.70;1762567;80;21021;-58
2022/04/01 06:51:11;;;;;;;5.10;2.92;;;;;;;1.94;91.66;96066.42;1757400;80;21140;-58
2022/04/01 06:53:39;;;;;;;3.47;2.42;;;;;;;2.01;91.52;96068.81;1755205;80;21665;-58
2022/04/01 06:56:06;;;;;;;6.40;3.27;;;;;;;2.06;91.05;96066.13;1741597;82;21458;-58
2022/04/01 06:58:33;;;;;;;5.67;3.33;;;;;;;2.11;90.99;96066.64;1728077;80;21091;-58
2022/04/01 07:01:00;;;;;;;7.55;4.72;;;;;;;2.06;90.73;96067.47;1758093;80;21045;-58
2022/04/01 07:03:27;;;;;;;6.78;3.92;;;;;;;2.13;90.92;96069.29;1753336;80;21695;-58
2022/04/01 07:05:55;;;;;;;6.58;3.02;;;;;;;2.22;91.00;96064.18;1756015;80;20993;-58
2022/04/01 07:08:22;;;;;;;28.85;14.93;;;;;;;2.15;90.49;96070.38;1745938;80;21057;-58
2022/04/01 07:10:49;;;;;;;6.50;4.75;;;;;;;2.19;90.52;96062.06;1741019;82;21033;-58
2022/04/01 07:13:16;;;;;;;5.08;3.67;;;;;;;2.38;90.71;96076.95;1747540;80;21512;-58
2022/04/01 07:15:44;;;;;;;3.70;2.62;;;;;;;2.42;90.37;96075.34;1750025;80;21061;-58
2022/04/01 07:18:11;;;;;;;3.50;2.43;;;;;;;2.25;89.26;96071.67;1724893;82;21021;-58
2022/04/01 07:20:37;;;;;;;4.97;3.33;;;;;;;2.35;89.73;96073.50;1762820;80;21364;-58
2022/04/01 07:23:05;;;;;;;4.35;2.83;;;;;;;2.33;89.72;96074.31;1758958;80;21030;-58
2022/04/01 07:25:32;;;;;;;3.22;2.45;;;;;;;2.21;89.56;96069.27;1744237;80;20985;-58
2022/04/01 07:27:59;;;;;;;3.67;2.47;;;;;;;2.41;89.75;96072.41;1753715;80;20985;-58
2022/04/01 07:30:26;;;;;;;3.27;2.30;;;;;;;2.37;89.30;96072.14;1759250;80;21077;-58
2022/04/01 07:32:56;;;;;;;22.30;17.80;;;;;;;2.31;89.08;96070.59;1759531;80;21134;-58
2022/04/01 07:35:23;;;;;;;11.33;10.13;;;;;;;2.01;89.03;96071.48;1763215;80;20961;-58
2022/04/01 07:37:50;;;;;;;4.42;3.70;;;;;;;2.15;89.21;96071.17;1761471;80;21211;-58
2022/04/01 07:40:18;;;;;;;3.40;2.70;;;;;;;2.17;89.43;96073.03;1751297;80;21005;-58
2022/04/01 07:42:45;;;;;;;4.25;3.37;;;;;;;2.22;89.70;96075.70;1752879;80;21005;-58
2022/04/01 07:45:12;;;;;;;3.90;2.27;;;;;;;1.91;89.05;96072.31;1755231;80;21755;-58
2022/04/01 07:47:42;;;;;;;4.25;3.45;;;;;;;1.81;89.32;96076.36;1762816;80;21153;-58
2022/04/01 07:50:08;;;;;;;5.10;3.15;;;;;;;1.67;90.13;96070.77;1763093;80;27366;-58
2022/04/01 07:52:40;;;;;;;8.05;5.08;;;;;;;1.83;90.01;96084.09;1744790;80;21174;-58
2022/04/01 07:55:04;;;;;;;19.87;13.35;;;;;;;1.89;90.10;96080.34;1761073;80;27231;-58
2022/04/01 07:57:31;;;;;;;8.98;6.40;;;;;;;1.97;90.10;96086.47;1761609;80;20970;-58
2022/04/01 07:59:58;;;;;;;10.25;9.18;;;;;;;1.90;90.67;96093.42;1763117;80;21056;-58
2022/04/01 08:02:25;;;;;;;48.40;25.82;;;;;;;1.96;90.35;96094.99;1760269;80;22113;-58
2022/04/01 08:04:53;;;;;;;10.75;8.48;;;;;;;2.04;90.53;96089.63;1755653;80;39016;-58
2022/04/01 08:07:22;;;;;;;7.92;6.03;;;;;;;2.06;90.73;96089.38;1766057;80;21087;-58
2022/04/01 08:09:52;;;;;;;6.65;4.87;;;;;;;2.13;90.65;96095.22;1705779;82;28168;-58
2022/04/01 08:12:19;;;;;;;8.63;5.78;;;;;;;2.06;90.01;96091.52;1741469;80;21010;-58
2022/04/01 08:14:46;;;;;;;9.83;6.58;;;;;;;1.82;90.83;96087.84;1703992;82;21023;-58
2022/04/01 08:17:14;;;;;;;6.47;4.97;;;;;;;1.92;90.74;96087.27;1752392;80;21089;-58
2022/04/01 08:19:42;;;;;;;11.65;8.13;;;;;;;1.92;90.31;96084.59;1752081;80;20989;-58
2022/04/01 08:22:09;;;;;;;8.75;5.92;;;;;;;1.80;90.80;96088.65;1755670;80;21628;-58
2022/04/01 08:24:36;;;;;;;11.35;6.95;;;;;;;2.08;90.84;96092.58;1748295;80;21568;-58
2022/04/01 08:27:03;;;;;;;5.25;4.08;;;;;;;2.35;90.37;96090.33;1757365;79;21099;-58
2022/04/01 08:29:30;;;;;;;5.47;4.50;;;;;;;2.06;90.19;96094.73;1762463;80;21025;-59
2022/04/01 08:31:57;;;;;;;9.55;6.00;;;;;;;2.40;89.90;96094.88;1761815;80;21075;-58
2022/04/01 08:34:24;;;;;;;7.60;4.72;;;;;;;2.47;89.78;96093.47;1763039;80;21008;-58
2022/04/01 08:36:51;;;;;;;8.45;5.65;;;;;;;2.49;89.46;96095.90;1750171;80;21446;-58
2022/04/01 08:39:18;;;;;;;18.07;13.85;;;;;;;2.62;89.31;96096.63;1745423;80;21010;-58
2022/04/01 08:41:45;;;;;;;9.73;6.75;;;;;;;2.54;89.17;96096.66;1754179;80;21029;-58
2022/04/01 08:44:12;;;;;;;5.08;4.35;;;;;;;2.54;88.70;96097.99;1717401;82;21109;-58
2022/04/01 08:46:39;;;;;;;4.20;3.25;;;;;;;2.28;87.99;96094.37;1751381;80;21069;-58
2022/04/01 08:49:06;;;;;;;4.92;3.52;;;;;;;2.22;88.38;96097.08;1750484;79;21036;-57
2022/04/01 08:51:33;;;;;;;9.08;4.30;;;;;;;2.18;88.61;96097.88;1738546;80;21016;-57
2022/04/01 08:54:02;;;;;;;4.62;3.85;;;;;;;2.11;88.77;96098.70;1745309;80;21085;-57
2022/04/01 08:56:28;;;;;;;6.40;4.90;;;;;;;2.11;89.23;96094.70;1752920;80;21005;-57
2022/04/01 08:58:55;;;;;;;6.70;4.62;;;;;;;2.16;89.64;96100.03;1760122;80;21623;-57
2022/04/01 09:01:22;;;;;;;11.85;7.37;;;;;;;2.06;88.85;96097.40;1743453;80;20963;-58
2022/04/01 09:03:50;;;;;;;6.15;4.28;;;;;;;1.98;89.72;96103.55;1744552;80;21025;-58
2022/04/01 09:06:17;;;;;;;5.72;3.92;;;;;;;1.96;89.29;96101.67;1725247;81;21302;-57
2022/04/01 09:08:45;;;;;;;12.43;6.55;;;;;;;2.03;89.16;96101.39;1719961;80;21466;-58
2022/04/01 09:11:18;;;;;;;7.37;5.35;;;;;;;2.08;89.32;96107.27;1759871;80;21080;-58
2022/04/01 09:13:49;;;;;;;6.55;4.67;;;;;;;2.06;88.62;96108.88;1749906;80;21135;-58
2022/04/01 09:16:31;;;;;;;5.20;3.70;;;;;;;2.02;87.75;96108.34;1744691;80;21100;-57
2022/04/01 09:19:00;;;;;;;8.85;5.20;;;;;;;2.11;88.40;96108.84;1755047;80;20974;-58
2022/04/01 09:21:30;;;;;;;6.90;4.08;;;;;;;2.18;88.12;96112.58;1746839;80;21028;-57
2022/04/01 09:23:58;;;;;;;6.28;4.37;;;;;;;1.95;88.21;96109.42;1744697;80;20986;-58
2022/04/01 09:26:35;;;;;;;5.47;3.45;;;;;;;1.86;88.89;96114.26;1759213;79;21085;-58
2022/04/01 09:29:03;;;;;;;7.92;4.70;;;;;;;1.88;88.96;96106.77;1759963;80;21036;-57
2022/04/01 09:31:38;;;;;;;5.35;4.00;;;;;;;1.92;89.38;96107.84;1759175;80;21013;-58
2022/04/01 09:34:06;;;;;;;10.30;7.08;;;;;;;2.17;89.20;96109.65;1741184;80;20882;-58
2022/04/01 09:36:36;;;;;;;10.20;7.97;;;;;;;2.46;88.65;96107.92;1763358;80;20994;-58
2022/04/01 09:39:09;;;;;;;7.20;5.30;;;;;;;2.60;88.85;96109.47;1756584;80;20958;-58
2022/04/01 09:41:39;;;;;;;8.38;5.78;;;;;;;2.55;88.33;96106.81;1754028;80;20975;-58
2022/04/01 09:44:23;;;;;;;10.30;7.03;;;;;;;2.57;88.35;96116.72;1751300;80;21755;-58
2022/04/01 09:46:56;;;;;;;4.90;4.33;;;;;;;2.80;88.21;96120.59;1758906;80;20986;-58
2022/04/01 09:49:42;;;;;;;5.67;4.20;;;;;;;2.65;87.63;96116.15;1754736;80;21092;-58
2022/04/01 09:52:12;;;;;;;4.60;3.95;;;;;;;2.57;87.17;96120.73;1682868;83;21075;-58
2022/04/01 09:54:51;;;;;;;5.10;4.60;;;;;;;2.65;86.99;96126.02;1754795;80;20997;-58
2022/04/01 09:57:20;;;;;;;5.83;4.60;;;;;;;2.58;86.50;96125.53;1759174;80;21029;-58
2022/04/01 09:59:49;;;;;;;8.50;6.62;;;;;;;2.38;86.21;96127.73;1755895;80;21037;-58
2022/04/01 10:02:16;;;;;;;7.60;5.78;;;;;;;2.42;86.77;96130.14;1744031;80;21080;-58
2022/04/01 10:04:43;;;;;;;6.65;5.40;;;;;;;2.41;86.93;96129.88;1743117;80;20966;-57
2022/04/01 10:07:10;;;;;;;4.90;4.33;;;;;;;2.47;87.75;96120.75;1755051;80;21514;-58
2022/04/01 10:09:38;;;;;;;8.30;5.25;;;;;;;2.42;86.93;96120.25;1761294;80;21107;-58
2022/04/01 10:12:09;;;;;;;4.70;4.17;;;;;;;2.31;87.83;96126.72;1760082;80;21080;-57
2022/04/01 10:14:39;;;;;;;7.70;4.70;;;;;;;2.45;87.89;96129.05;1673970;83;21655;-57
2022/04/01 10:17:09;;;;;;;6.05;3.77;;;;;;;2.56;88.05;96116.43;1743856;80;21065;-58
2022/04/01 10:19:39;;;;;;;8.03;5.25;;;;;;;2.59;87.09;96120.45;1742078;81;21455;-58
2022/04/01 10:22:06;;;;;;;4.87;3.92;;;;;;;2.69;87.42;96124.41;1744149;80;20976;-58
2022/04/01 10:24:59;;;;;;;4.92;4.40;;;;;;;2.60;86.53;96124.72;1762792;80;20994;-58
2022/04/01 10:27:40;;;;;;;5.42;4.83;;;;;;;2.60;87.37;96124.72;1760539;80;21128;-58
2022/04/01 10:30:09;;;;;;;7.20;4.47;;;;;;;2.47;87.33;96130.91;1751768;80;20957;-58
2022/04/01 10:32:39;;;;;;;6.37;4.25;;;;;;;2.33;87.12;96133.12;1746681;80;21170;-57
2022/04/01 10:35:08;;;;;;;4.83;3.70;;;;;;;2.16;88.31;96130.77;1749108;80;21604;-58
2022/04/01 10:37:36;;;;;;;4.97;3.37;;;;;;;2.05;87.54;96130.50;1760900;80;21191;-57
2022/04/01 10:40:17;;;;;;;3.95;3.30;;;;;;;2.16;87.15;96138.78;1760557;80;20981;-58
2022/04/01 10:42:47;;;;;;;4.65;4.10;;;;;;;2.06;87.86;96140.15;1717389;82;21116;-58
2022/04/01 10:45:19;;;;;;;5.35;3.85;;;;;;;2.01;88.09;96138.27;1742298;80;21670;-58
2022/04/01 10:54:01;;;;;;;6.25;3.98;;;;;;;2.02;88.63;96141.20;1749414;80;21573;-58
2022/04/01 10:56:31;;;;;;;4.67;3.50;;;;;;;1.71;88.85;96148.48;1752599;80;21423;-58
2022/04/01 10:59:11;;;;;;;7.42;3.80;;;;;;;1.88;88.65;96154.84;1747003;80;21091;-58
2022/04/01 11:01:57;;;;;;;6.50;4.42;;;;;;;1.93;89.02;96148.97;1755163;80;21788;-58
2022/04/01 11:04:26;;;;;;;5.50;3.58;;;;;;;1.92;89.46;96148.70;1753789;80;21383;-57
2022/04/01 11:07:07;;;;;;;5.60;4.65;;;;;;;1.89;88.70;96155.14;1761329;80;21100;-58
2022/04/01 11:09:54;;;;;;;6.15;4.03;;;;;;;2.05;88.87;96154.55;1759965;80;21044;-57
2022/04/01 11:12:35;;;;;;;5.70;4.25;;;;;;;2.03;88.74;96154.03;1762764;80;22065;-58
2022/04/01 11:15:09;;;;;;;6.00;4.30;;;;;;;2.12;89.26;96159.08;1752464;80;21104;-58
2022/04/01 11:17:42;;;;;;;6.65;4.92;;;;;;;2.20;88.97;96163.88;1744362;80;21683;-58
2022/04/01 11:20:17;;;;;;;6.58;5.00;;;;;;;2.19;89.27;96158.27;1747961;80;21130;-58
2022/04/01 11:23:04;;;;;;;13.93;9.25;;;;;;;2.13;89.36;96158.80;1752237;80;21073;-58
2022/04/01 11:25:38;;;;;;;6.25;5.37;;;;;;;2.17;88.90;96157.21;1757769;80;22262;-58
2022/04/01 11:28:08;;;;;;;5.45;4.22;;;;;;;2.22;88.31;96165.23;1741732;80;21011;-57
2022/04/01 11:30:43;;;;;;;4.78;3.20;;;;;;;2.02;88.00;96165.79;1747803;80;21005;-58
2022/04/01 11:33:14;;;;;;;5.45;4.40;;;;;;;2.12;88.07;96162.55;1745298;80;21081;-58
2022/04/01 11:35:44;;;;;;;4.85;3.52;;;;;;;2.17;88.07;96161.76;1745449;80;21517;-58
2022/04/01 11:38:14;;;;;;;5.90;3.92;;;;;;;2.28;88.03;96164.66;1743534;80;21053;-57
2022/04/01 11:40:43;;;;;;;6.08;4.10;;;;;;;2.25;88.07;96168.69;1750348;80;20997;-58
2022/04/01 11:43:11;;;;;;;6.97;5.35;;;;;;;2.33;88.10;96169.20;1763115;80;21009;-58
2022/04/01 11:45:50;;;;;;;7.28;5.45;;;;;;;2.49;88.29;96170.22;1764025;80;24202;-57
2022/04/01 11:48:28;;;;;;;12.77;8.30;;;;;;;2.63;88.21;96166.95;1756278;80;21053;-58
2022/04/01 11:51:18;;;;;;;52.78;27.60;;;;;;;2.71;88.03;96173.86;1751180;80;20961;-57
2022/04/01 11:53:49;;;;;;;19.23;11.50;;;;;;;2.69;87.81;96177.89;1757831;80;21860;-58
2022/04/01 11:56:20;;;;;;;16.80;9.00;;;;;;;2.85;87.58;96172.75;1754022;80;21087;-58
2022/04/01 11:59:00;;;;;;;5.83;4.40;;;;;;;3.01;87.38;96176.15;1745085;80;21182;-58
2022/04/01 12:01:34;;;;;;;7.97;6.42;;;;;;;2.69;85.51;96176.56;1748380;80;21466;-58
2022/04/01 12:04:08;;;;;;;17.12;10.95;;;;;;;3.04;85.97;96168.90;1761835;80;21078;-58
2022/04/01 12:09:15;;;;;;;10.10;8.08;;;;;;;3.43;85.93;96169.47;1685003;80;21602;-58
2022/04/01 12:11:46;;;;;;;8.40;6.55;;;;;;;3.30;85.23;96169.00;1762171;80;21017;-58